West Park, New York
Current Conditions -  °F | °C
As of 9:00 PM on Tuesday 21 Oct 2014 (Local Time) from KPOU Reporting Station
Light Rain Light Rain  
Wind Chill: 53°   Ceiling: 600
Heat Index: 53°   Visibility: 9mi
Dew Point: 50°   Wind: 3mph
Humidity: 89%   Direction: 330°NNW
Pressure: 29.93"   Gusts: NA
Location:  41.79°N, 73.96°W
Report Text: KPOU 220100Z AUTO 33003KT 9SM -RA OVC006 12/10 A2993 RMK AO2 RAB0057 CIG 005V010 P0000 T01170100 TSNO
Loading
Personal Weather Stations






























Interactive Weather Map
Tropical Storm Tracking
New forecast layout! Learn more

10-Day Weather Forecast

Advertisements
Track Severe Weather on mobile